Time;durP1;ratioP1;P1;durP2;ratioP2;P2;SDS_P1;SDS_P2;PMS_P1;PMS_P2;Temp;Humidity;BMP_temperature;BMP_pressure;BME280_temperature;BME280_humidity;BME280_pressure;Samples;Min_cycle;Max_cycle;Signal;HPM_P1;HPM_P2
2021/06/05 00:00:54;;;;;;;13.13;12.33;;;24.20;81.40;;;;;;3622821;39;20562;-65
2021/06/05 00:03:22;;;;;;;14.00;13.00;;;24.20;81.40;;;;;;3622496;39;20507;-65
2021/06/05 00:05:53;;;;;;;14.30;13.40;;;24.20;81.40;;;;;;3612765;39;20901;-65
2021/06/05 00:08:21;;;;;;;13.90;13.10;;;24.10;81.40;;;;;;3612634;39;20475;-65
2021/06/05 00:10:55;;;;;;;13.33;12.63;;;24.20;81.50;;;;;;3622441;39;20701;-65
2021/06/05 00:13:24;;;;;;;13.90;13.20;;;24.20;81.50;;;;;;3622146;39;20514;-65
2021/06/05 00:15:52;;;;;;;12.83;12.13;;;24.20;81.50;;;;;;3622177;39;20474;-65
2021/06/05 00:18:20;;;;;;;14.07;13.27;;;24.20;81.50;;;;;;3622078;39;20869;-65
2021/06/05 00:20:47;;;;;;;12.90;12.10;;;24.20;81.50;;;;;;3621962;39;20475;-65
2021/06/05 00:23:17;;;;;;;12.50;11.87;;;24.10;81.30;;;;;;3622302;39;20922;-65
2021/06/05 00:25:44;;;;;;;13.63;12.83;;;24.20;81.50;;;;;;3622731;39;20485;-65
2021/06/05 00:28:11;;;;;;;13.17;12.37;;;24.20;81.50;;;;;;3623229;39;20485;-65
2021/06/05 00:30:39;;;;;;;12.63;11.93;;;24.20;81.50;;;;;;3621803;39;20486;-65
2021/06/05 00:33:06;;;;;;;13.20;12.47;;;24.20;81.40;;;;;;3622364;39;20476;-65
2021/06/05 00:35:37;;;;;;;12.40;11.70;;;24.20;81.50;;;;;;3622394;39;20487;-65
2021/06/05 00:38:05;;;;;;;13.00;12.30;;;24.20;81.40;;;;;;3622003;39;20486;-65
2021/06/05 00:40:38;;;;;;;12.53;11.83;;;24.20;81.50;;;;;;3621793;39;20486;-65
2021/06/05 00:43:06;;;;;;;12.63;11.93;;;24.20;81.50;;;;;;3623047;39;20535;-65
2021/06/05 00:45:38;;;;;;;12.30;11.50;;;24.20;81.40;;;;;;3623169;39;20475;-65
2021/06/05 00:48:06;;;;;;;13.73;12.83;;;24.20;81.40;;;;;;3623703;39;20467;-65
2021/06/05 00:50:41;;;;;;;12.63;11.97;;;24.20;81.50;;;;;;3623761;39;20614;-65
2021/06/05 00:53:09;;;;;;;12.50;11.80;;;24.20;81.40;;;;;;3623236;39;20483;-65
2021/06/05 00:55:41;;;;;;;12.50;11.83;;;24.20;81.50;;;;;;3614974;39;20528;-65
2021/06/05 00:58:08;;;;;;;12.40;11.70;;;24.20;81.40;;;;;;3614875;39;20530;-65
2021/06/05 01:00:39;;;;;;;13.50;12.60;;;24.20;81.30;;;;;;3624380;39;20483;-65
2021/06/05 01:03:08;;;;;;;12.70;12.00;;;24.20;81.30;;;;;;3614388;39;20557;-65
2021/06/05 01:05:37;;;;;;;13.07;12.27;;;24.20;81.40;;;;;;3605752;39;20475;-65
2021/06/05 01:08:15;;;;;;;12.67;12.03;;;24.20;81.50;;;;;;3624064;39;20479;-65
2021/06/05 01:10:46;;;;;;;13.27;12.37;;;24.20;81.50;;;;;;3615074;39;20475;-65
2021/06/05 01:13:19;;;;;;;12.67;12.07;;;24.20;81.40;;;;;;3614395;39;20806;-65
2021/06/05 01:15:51;;;;;;;13.43;12.73;;;24.20;81.50;;;;;;3623674;39;20482;-65
2021/06/05 01:18:27;;;;;;;13.57;12.87;;;24.20;81.50;;;;;;3623518;39;20474;-65
2021/06/05 01:21:25;;;;;;;13.27;12.60;;;24.20;81.50;;;;;;3606261;39;20559;-65
2021/06/05 01:24:04;;;;;;;13.20;12.50;;;24.20;81.50;;;;;;3624442;39;20473;-65
2021/06/05 01:26:35;;;;;;;12.73;11.93;;;24.20;81.40;;;;;;3614410;39;20695;-65
2021/06/05 01:29:12;;;;;;;13.40;12.60;;;24.20;81.30;;;;;;3628202;39;20486;-65
2021/06/05 01:31:42;;;;;;;12.73;11.93;;;24.20;81.30;;;;;;3624662;39;20743;-65
2021/06/05 01:34:09;;;;;;;13.60;12.80;;;24.20;81.30;;;;;;3634445;39;20498;-65
2021/06/05 01:36:43;;;;;;;13.57;12.77;;;24.20;81.30;;;;;;3634309;39;20518;-65
2021/06/05 01:39:16;;;;;;;12.50;11.83;;;24.20;81.30;;;;;;3624061;39;20736;-65
2021/06/05 01:41:46;;;;;;;12.57;11.67;;;24.20;81.30;;;;;;3624269;39;20708;-65
2021/06/05 01:44:15;;;;;;;12.67;11.97;;;24.20;81.30;;;;;;3623960;39;20743;-65
2021/06/05 01:46:48;;;;;;;13.37;12.67;;;24.20;81.30;;;;;;3633323;39;20476;-65
2021/06/05 01:49:19;;;;;;;12.90;12.20;;;24.20;81.20;;;;;;3634002;39;20478;-65
2021/06/05 01:51:50;;;;;;;12.00;11.30;;;24.20;81.20;;;;;;3634340;39;20512;-65
2021/06/05 01:54:24;;;;;;;13.27;12.57;;;24.20;81.30;;;;;;3624651;39;20518;-65
2021/06/05 01:56:56;;;;;;;13.47;12.57;;;24.20;81.20;;;;;;3632927;39;20526;-65
2021/06/05 01:59:36;;;;;;;14.83;13.93;;;24.20;81.20;;;;;;3633360;39;20578;-65
2021/06/05 02:02:08;;;;;;;13.77;13.00;;;24.20;81.10;;;;;;3624681;39;20478;-65
2021/06/05 02:04:35;;;;;;;13.00;12.20;;;24.20;81.20;;;;;;3624343;39;20539;-65
2021/06/05 02:07:07;;;;;;;12.80;12.17;;;24.20;81.20;;;;;;3633259;39;20490;-65
2021/06/05 02:09:35;;;;;;;12.60;11.97;;;24.20;81.20;;;;;;3624049;39;20474;-65
2021/06/05 02:12:21;;;;;;;13.10;12.40;;;24.20;81.20;;;;;;3624299;39;20535;-65
2021/06/05 02:15:03;;;;;;;12.70;12.00;;;24.20;81.20;;;;;;3634075;39;20494;-65
2021/06/05 02:17:33;;;;;;;12.93;12.23;;;24.10;81.10;;;;;;3633643;39;20491;-65
2021/06/05 02:20:08;;;;;;;12.67;11.97;;;24.10;81.10;;;;;;3624504;39;20514;-65
2021/06/05 02:22:47;;;;;;;12.97;12.27;;;24.10;81.00;;;;;;3633642;39;20486;-65
2021/06/05 02:25:23;;;;;;;12.90;12.20;;;24.10;81.00;;;;;;3633859;39;20474;-65
2021/06/05 02:27:55;;;;;;;13.40;12.70;;;24.10;81.10;;;;;;3625624;39;20221;-65
2021/06/05 02:30:26;;;;;;;13.00;12.30;;;24.20;81.20;;;;;;3624566;39;20486;-65
2021/06/05 02:32:54;;;;;;;12.80;12.13;;;24.20;81.00;;;;;;3633460;39;20467;-65
2021/06/05 02:35:32;;;;;;;12.57;11.87;;;24.10;81.00;;;;;;3633040;39;20716;-65
2021/06/05 02:38:07;;;;;;;12.97;12.27;;;24.10;81.00;;;;;;3624176;39;20482;-65
2021/06/05 02:40:41;;;;;;;13.70;12.90;;;24.10;81.00;;;;;;3625280;39;20855;-65
2021/06/05 02:43:12;;;;;;;13.37;12.67;;;24.10;80.90;;;;;;3633739;39;20475;-65
2021/06/05 02:45:45;;;;;;;14.10;13.20;;;24.10;80.90;;;;;;3623993;39;20479;-65
2021/06/05 02:48:13;;;;;;;13.07;12.37;;;24.10;80.90;;;;;;3624247;39;20475;-65
2021/06/05 02:50:47;;;;;;;12.50;11.80;;;24.10;80.90;;;;;;3633589;39;20473;-65
2021/06/05 02:53:16;;;;;;;13.43;12.73;;;24.10;81.00;;;;;;3624371;39;20550;-65
2021/06/05 02:55:46;;;;;;;13.30;12.50;;;24.10;80.90;;;;;;3632941;39;20465;-65
2021/06/05 02:58:15;;;;;;;13.67;12.97;;;24.10;80.90;;;;;;3623829;39;20584;-65
2021/06/05 03:00:47;;;;;;;13.00;12.40;;;24.10;80.90;;;;;;3623964;39;20486;-65
2021/06/05 03:03:19;;;;;;;13.13;12.53;;;24.10;80.90;;;;;;3633138;39;20529;-65
2021/06/05 03:05:48;;;;;;;13.60;12.90;;;24.10;80.90;;;;;;3632254;39;20482;-65
2021/06/05 03:08:22;;;;;;;13.90;13.17;;;24.10;80.90;;;;;;3623280;39;20526;-64
2021/06/05 03:10:50;;;;;;;12.67;12.03;;;24.10;80.90;;;;;;3633284;39;20490;-65
2021/06/05 03:13:20;;;;;;;13.50;12.70;;;24.10;80.90;;;;;;3632259;39;20479;-65
2021/06/05 03:15:49;;;;;;;13.70;13.00;;;24.10;80.90;;;;;;3632949;39;20817;-65
2021/06/05 03:18:22;;;;;;;13.67;12.97;;;24.10;80.90;;;;;;3632721;39;20470;-65
2021/06/05 03:20:51;;;;;;;13.83;13.23;;;24.10;80.80;;;;;;3633197;39;20471;-65
2021/06/05 03:23:21;;;;;;;13.83;13.10;;;24.10;80.80;;;;;;3623506;39;20494;-65
2021/06/05 03:25:48;;;;;;;13.40;12.70;;;24.10;80.80;;;;;;3632422;39;20718;-65
2021/06/05 03:28:19;;;;;;;13.87;13.20;;;24.10;80.80;;;;;;3623479;39;20474;-65
2021/06/05 03:30:47;;;;;;;13.70;12.90;;;24.10;80.80;;;;;;3633423;39;20470;-65
2021/06/05 03:33:16;;;;;;;14.03;13.33;;;24.10;80.80;;;;;;3623192;39;20462;-65
2021/06/05 03:35:43;;;;;;;13.40;12.80;;;24.10;80.90;;;;;;3623350;39;20779;-65
2021/06/05 03:38:11;;;;;;;14.43;13.57;;;24.10;80.80;;;;;;3623474;39;20548;-65
2021/06/05 03:40:41;;;;;;;13.80;13.03;;;24.10;80.80;;;;;;3633094;39;20623;-65
2021/06/05 03:43:09;;;;;;;12.80;12.20;;;24.10;80.80;;;;;;3632726;39;20471;-65
2021/06/05 03:45:39;;;;;;;13.20;12.57;;;24.10;80.80;;;;;;3615347;39;20470;-65
2021/06/05 03:48:06;;;;;;;12.90;12.30;;;24.10;80.70;;;;;;3632623;39;20523;-65
2021/06/05 03:50:38;;;;;;;13.73;12.87;;;24.10;80.70;;;;;;3623463;39;20790;-65
2021/06/05 03:53:09;;;;;;;13.20;12.60;;;24.10;80.70;;;;;;3623921;39;20478;-65
2021/06/05 03:55:38;;;;;;;13.67;12.97;;;24.10;80.70;;;;;;3623080;39;20507;-65
2021/06/05 03:58:05;;;;;;;12.90;12.30;;;24.10;80.60;;;;;;3632904;39;20482;-65
2021/06/05 04:00:34;;;;;;;13.27;12.57;;;24.10;80.60;;;;;;3632250;39;20482;-65
2021/06/05 04:03:03;;;;;;;13.03;12.30;;;24.10;80.60;;;;;;3633093;39;20536;-65
2021/06/05 04:05:29;;;;;;;13.00;12.30;;;24.10;80.60;;;;;;3632537;39;20467;-65
2021/06/05 04:07:56;;;;;;;13.40;12.70;;;24.10;80.60;;;;;;3632399;39;20498;-65
2021/06/05 04:10:26;;;;;;;12.60;12.00;;;24.10;80.70;;;;;;3631174;39;20486;-65
2021/06/05 04:12:53;;;;;;;13.47;12.77;;;24.10;80.60;;;;;;3632697;39;20729;-65
2021/06/05 04:15:23;;;;;;;12.10;11.50;;;24.10;80.60;;;;;;3633046;39;20454;-65
2021/06/05 04:17:57;;;;;;;13.67;12.93;;;24.10;80.60;;;;;;3633271;39;20462;-65
2021/06/05 04:20:25;;;;;;;12.60;12.00;;;24.10;80.50;;;;;;3632598;39;20483;-65
2021/06/05 04:22:52;;;;;;;12.20;11.60;;;24.10;80.60;;;;;;3631570;39;20737;-65
2021/06/05 04:25:19;;;;;;;12.30;11.70;;;24.10;80.60;;;;;;3632679;39;20478;-65
2021/06/05 04:27:47;;;;;;;13.37;12.67;;;24.10;80.60;;;;;;3632854;39;20514;-65
2021/06/05 04:30:16;;;;;;;12.90;12.30;;;24.10;80.50;;;;;;3622868;39;20463;-65
2021/06/05 04:32:44;;;;;;;13.60;13.00;;;24.10;80.50;;;;;;3622235;39;20572;-65
2021/06/05 04:35:12;;;;;;;14.07;13.37;;;24.10;80.50;;;;;;3621484;39;20475;-65
2021/06/05 04:37:40;;;;;;;13.50;12.80;;;24.10;80.50;;;;;;3621594;39;20479;-65
2021/06/05 04:40:09;;;;;;;12.87;12.27;;;24.20;80.60;;;;;;3622433;39;20459;-65
2021/06/05 04:42:36;;;;;;;13.00;12.40;;;24.20;80.60;;;;;;3612809;39;20474;-65
2021/06/05 04:45:04;;;;;;;14.53;13.73;;;24.20;80.60;;;;;;3621743;39;20479;-65
2021/06/05 04:47:31;;;;;;;13.93;13.20;;;24.20;80.60;;;;;;3622268;39;20479;-65
2021/06/05 04:49:57;;;;;;;13.57;12.87;;;24.20;80.70;;;;;;3621639;39;20467;-65
2021/06/05 04:52:24;;;;;;;13.83;12.83;;;24.20;80.80;;;;;;3621929;39;20645;-65
2021/06/05 04:54:52;;;;;;;13.60;13.00;;;24.20;80.80;;;;;;3621045;39;20475;-65
2021/06/05 04:57:19;;;;;;;13.80;13.20;;;24.20;80.90;;;;;;3611941;39;20696;-65
2021/06/05 04:59:46;;;;;;;13.10;12.27;;;24.20;80.90;;;;;;3621660;39;20487;-65
2021/06/05 05:02:13;;;;;;;12.70;12.10;;;24.20;80.70;;;;;;3620956;39;20539;-65
2021/06/05 05:04:43;;;;;;;13.27;12.57;;;24.20;80.60;;;;;;3621743;39;20559;-65
2021/06/05 05:07:10;;;;;;;13.40;12.73;;;24.20;80.50;;;;;;3621676;39;20495;-65
2021/06/05 05:09:37;;;;;;;13.07;12.37;;;24.20;80.50;;;;;;3621914;39;20548;-65
2021/06/05 05:12:07;;;;;;;13.77;13.07;;;24.20;80.50;;;;;;3622872;39;20498;-65
2021/06/05 05:14:34;;;;;;;13.13;12.50;;;24.20;80.50;;;;;;3621047;39;20800;-65
2021/06/05 05:17:01;;;;;;;13.07;12.30;;;24.20;80.40;;;;;;3620414;39;20482;-65
2021/06/05 05:19:27;;;;;;;13.70;12.93;;;24.20;80.50;;;;;;3620563;39;20479;-65
2021/06/05 05:21:54;;;;;;;13.20;12.50;;;24.30;80.50;;;;;;3610733;39;20564;-65
2021/06/05 05:24:21;;;;;;;13.27;12.60;;;24.30;80.50;;;;;;3619479;39;20564;-65
2021/06/05 05:26:47;;;;;;;12.20;11.63;;;24.30;80.50;;;;;;3620239;39;20494;-65
2021/06/05 05:29:15;;;;;;;13.90;13.20;;;24.30;80.50;;;;;;3626476;39;20477;-65
2021/06/05 05:31:42;;;;;;;13.13;12.50;;;24.30;80.40;;;;;;3632355;39;20474;-65
2021/06/05 05:34:09;;;;;;;13.37;12.77;;;24.30;80.40;;;;;;3632090;39;20559;-65
2021/06/05 05:36:38;;;;;;;13.00;12.20;;;24.30;80.40;;;;;;3632074;39;20491;-65
2021/06/05 05:39:06;;;;;;;13.80;13.10;;;24.30;80.40;;;;;;3632091;39;20466;-65
2021/06/05 05:41:33;;;;;;;13.50;12.80;;;24.30;80.40;;;;;;3632469;39;20876;-65
2021/06/05 05:44:00;;;;;;;13.23;12.63;;;24.30;80.40;;;;;;3632177;39;20494;-65
2021/06/05 05:46:28;;;;;;;12.57;11.97;;;24.30;80.40;;;;;;3633551;39;20477;-65
2021/06/05 05:48:55;;;;;;;13.30;12.70;;;24.30;80.40;;;;;;3632745;39;20493;-65
2021/06/05 05:51:23;;;;;;;12.40;11.80;;;24.30;80.40;;;;;;3633401;39;20653;-65
2021/06/05 05:53:50;;;;;;;12.63;12.03;;;24.30;80.40;;;;;;3633188;39;20594;-65
2021/06/05 05:56:20;;;;;;;12.13;11.53;;;24.30;80.40;;;;;;3632694;39;20568;-65
2021/06/05 05:58:48;;;;;;;13.93;12.80;;;24.30;80.40;;;;;;3633202;39;20482;-65
2021/06/05 06:01:19;;;;;;;13.30;12.70;;;24.30;80.40;;;;;;3632669;39;20466;-65
2021/06/05 06:03:47;;;;;;;12.53;11.97;;;24.30;80.50;;;;;;3632866;39;21092;-65
2021/06/05 06:06:15;;;;;;;13.47;12.80;;;24.20;80.30;;;;;;3632662;39;20470;-65
2021/06/05 06:08:42;;;;;;;12.40;11.80;;;24.30;80.50;;;;;;3632548;39;20479;-65
2021/06/05 06:11:11;;;;;;;12.47;11.93;;;24.30;80.50;;;;;;3632061;39;21010;-65
2021/06/05 06:13:38;;;;;;;13.17;12.57;;;24.20;80.30;;;;;;3632200;39;20482;-65
2021/06/05 06:16:07;;;;;;;13.27;12.57;;;24.20;80.30;;;;;;3632581;39;20481;-65
2021/06/05 06:18:34;;;;;;;13.67;12.97;;;24.20;80.30;;;;;;3631886;39;20467;-65
2021/06/05 06:21:03;;;;;;;12.73;12.13;;;24.20;80.30;;;;;;3631769;39;20486;-66
2021/06/05 06:23:31;;;;;;;12.80;12.00;;;24.20;80.20;;;;;;3631466;39;20482;-65
2021/06/05 06:26:00;;;;;;;12.37;11.83;;;24.20;80.20;;;;;;3631360;39;20518;-65
2021/06/05 06:28:29;;;;;;;12.73;12.13;;;24.20;80.30;;;;;;3633769;39;20500;-65
2021/06/05 06:30:57;;;;;;;12.83;12.20;;;24.20;80.20;;;;;;3642217;39;20458;-65
2021/06/05 06:33:24;;;;;;;13.17;12.53;;;24.20;80.30;;;;;;3642152;39;20466;-65
2021/06/05 06:35:53;;;;;;;12.37;11.67;;;24.20;80.30;;;;;;3642201;39;20476;-65
2021/06/05 06:38:25;;;;;;;12.57;11.77;;;24.20;80.20;;;;;;3641919;39;20470;-65
2021/06/05 06:40:52;;;;;;;12.23;11.63;;;24.20;80.20;;;;;;3642308;39;20513;-65
2021/06/05 06:43:22;;;;;;;12.43;11.83;;;24.20;80.20;;;;;;3643378;39;20478;-65
2021/06/05 06:46:01;;;;;;;11.93;11.43;;;24.20;80.20;;;;;;3641325;39;20508;-65
2021/06/05 06:48:28;;;;;;;11.83;11.23;;;24.30;80.40;;;;;;3641747;39;20484;-65
2021/06/05 06:50:54;;;;;;;11.40;10.90;;;24.20;80.20;;;;;;3642317;39;20784;-65
2021/06/05 06:53:22;;;;;;;11.97;11.37;;;24.30;80.40;;;;;;3641930;39;21330;-65
2021/06/05 06:55:48;;;;;;;12.20;11.60;;;24.20;80.30;;;;;;3642061;39;20465;-65
2021/06/05 06:58:16;;;;;;;11.73;11.13;;;24.20;80.30;;;;;;3641667;39;20474;-65
2021/06/05 07:00:45;;;;;;;11.50;11.00;;;24.20;80.30;;;;;;3641833;39;20473;-65
2021/06/05 07:03:13;;;;;;;13.07;12.40;;;24.20;80.30;;;;;;3641812;39;20474;-65
2021/06/05 07:05:40;;;;;;;11.33;10.80;;;24.20;80.30;;;;;;3640761;39;20496;-65
2021/06/05 07:08:09;;;;;;;11.80;11.20;;;24.20;80.30;;;;;;3636469;39;20734;-64
2021/06/05 07:10:38;;;;;;;12.40;11.60;;;24.20;80.30;;;;;;3636175;39;20855;-64
2021/06/05 07:13:05;;;;;;;11.30;10.80;;;24.20;80.30;;;;;;3635535;39;20742;-64
2021/06/05 07:15:32;;;;;;;12.57;11.97;;;24.20;80.30;;;;;;3634639;39;20484;-64
2021/06/05 07:17:59;;;;;;;12.17;11.57;;;24.20;80.40;;;;;;3634807;39;20470;-64
2021/06/05 07:20:26;;;;;;;12.23;11.50;;;24.20;80.50;;;;;;3637238;39;20474;-64
2021/06/05 07:22:52;;;;;;;12.77;12.07;;;24.20;80.60;;;;;;3636155;39;21045;-65
2021/06/05 07:25:19;;;;;;;11.30;10.80;;;24.20;80.70;;;;;;3633861;39;20871;-65
2021/06/05 07:27:48;;;;;;;11.60;11.00;;;24.20;80.70;;;;;;3635073;39;20465;-64
2021/06/05 07:30:16;;;;;;;11.33;10.83;;;24.20;80.70;;;;;;3635389;39;20901;-64
2021/06/05 07:32:42;;;;;;;12.43;11.83;;;24.20;80.70;;;;;;3635268;39;20472;-64
2021/06/05 07:35:10;;;;;;;12.10;11.50;;;24.20;80.70;;;;;;3635361;39;20516;-64
2021/06/05 07:37:37;;;;;;;11.57;11.00;;;24.20;80.80;;;;;;3635330;39;20814;-64
2021/06/05 07:40:07;;;;;;;11.53;10.93;;;24.20;80.70;;;;;;3634149;39;20523;-64
2021/06/05 07:42:35;;;;;;;11.53;11.03;;;24.20;80.70;;;;;;3633347;39;20457;-64
2021/06/05 07:45:06;;;;;;;11.60;11.00;;;24.20;80.70;;;;;;3635345;39;20750;-64
2021/06/05 07:47:32;;;;;;;11.73;10.70;;;24.20;80.70;;;;;;3635054;39;20466;-64
2021/06/05 07:49:59;;;;;;;11.43;10.83;;;24.20;80.90;;;;;;3634944;39;20465;-64
2021/06/05 07:52:27;;;;;;;11.50;10.83;;;24.20;80.90;;;;;;3625905;39;20671;-64
2021/06/05 07:54:55;;;;;;;11.77;11.10;;;24.20;81.00;;;;;;3635003;39;20466;-64
2021/06/05 07:57:23;;;;;;;11.73;11.13;;;24.20;81.00;;;;;;3634527;39;20489;-65
2021/06/05 07:59:50;;;;;;;11.90;11.30;;;24.20;81.00;;;;;;3624465;39;21058;-65
2021/06/05 08:02:18;;;;;;;11.43;10.70;;;24.20;81.00;;;;;;3635136;39;20518;-64
2021/06/05 08:04:45;;;;;;;10.70;10.00;;;24.20;81.00;;;;;;3633616;39;20557;-64
2021/06/05 08:07:12;;;;;;;12.00;11.40;;;24.20;81.00;;;;;;3633553;39;20489;-65
2021/06/05 08:09:39;;;;;;;12.53;11.90;;;24.20;81.00;;;;;;3633331;39;20481;-67
2021/06/05 08:12:07;;;;;;;11.00;10.50;;;24.20;81.00;;;;;;3641599;39;20486;-65
2021/06/05 08:14:34;;;;;;;12.20;11.37;;;24.20;80.90;;;;;;3649299;39;20522;-65
2021/06/05 08:17:01;;;;;;;10.77;10.30;;;24.20;80.80;;;;;;3636821;39;20470;-64
2021/06/05 08:19:29;;;;;;;12.17;11.37;;;24.20;80.70;;;;;;3631827;39;21076;-65
2021/06/05 08:21:55;;;;;;;10.90;10.40;;;24.20;80.70;;;;;;3633017;39;20505;-65
2021/06/05 08:24:22;;;;;;;11.50;10.90;;;24.20;80.80;;;;;;3630778;39;21111;-65
2021/06/05 08:26:51;;;;;;;11.63;11.03;;;24.30;81.00;;;;;;3633066;39;20822;-65
2021/06/05 08:29:18;;;;;;;11.77;10.83;;;24.20;80.90;;;;;;3633346;39;20522;-65
2021/06/05 08:31:49;;;;;;;11.82;10.88;;;24.20;80.80;;;;;;3632989;39;20467;-65
2021/06/05 08:34:15;;;;;;;11.47;10.83;;;24.20;80.90;;;;;;3632303;39;20236;-65
2021/06/05 08:36:44;;;;;;;11.23;10.40;;;24.30;81.00;;;;;;3631522;39;20474;-65
2021/06/05 08:39:12;;;;;;;11.07;10.20;;;24.30;81.00;;;;;;3622823;39;20481;-65
2021/06/05 08:41:42;;;;;;;12.33;11.27;;;24.30;81.00;;;;;;3633702;39;20531;-65
2021/06/05 08:44:13;;;;;;;10.90;10.33;;;24.30;80.90;;;;;;3633622;39;20477;-65
2021/06/05 08:46:41;;;;;;;11.80;10.97;;;24.30;80.90;;;;;;3634195;39;20465;-65
2021/06/05 08:49:16;;;;;;;11.63;11.00;;;24.30;80.90;;;;;;3633869;39;20468;-65
2021/06/05 08:51:55;;;;;;;11.73;10.93;;;24.30;80.90;;;;;;3633749;39;20511;-65
2021/06/05 08:54:34;;;;;;;11.70;10.90;;;24.30;80.90;;;;;;3634156;39;20557;-65
2021/06/05 08:57:06;;;;;;;11.43;10.80;;;24.30;80.90;;;;;;3633374;39;20910;-65
2021/06/05 08:59:34;;;;;;;12.03;11.40;;;24.30;80.90;;;;;;3632701;39;20561;-65
2021/06/05 09:02:02;;;;;;;10.50;10.10;;;24.30;80.90;;;;;;3633683;39;20514;-65
2021/06/05 09:04:30;;;;;;;11.30;10.60;;;24.30;80.90;;;;;;3636141;39;20739;-65
2021/06/05 09:07:01;;;;;;;11.90;11.20;;;24.30;80.90;;;;;;3635169;39;20493;-65
2021/06/05 09:09:32;;;;;;;11.60;11.00;;;24.30;80.90;;;;;;3635938;39;20489;-65
2021/06/05 09:11:59;;;;;;;11.10;10.60;;;24.30;80.80;;;;;;3633892;39;21272;-65
2021/06/05 09:14:26;;;;;;;11.77;11.00;;;24.30;80.80;;;;;;3623545;39;20614;-65
2021/06/05 09:16:56;;;;;;;12.00;11.20;;;24.20;80.70;;;;;;3623681;39;20481;-65
2021/06/05 09:19:27;;;;;;;11.43;10.83;;;24.30;80.80;;;;;;3624921;39;20489;-65
2021/06/05 09:22:13;;;;;;;10.80;10.20;;;24.30;80.80;;;;;;3624520;39;20501;-65
2021/06/05 09:24:41;;;;;;;9.97;9.47;;;24.20;80.70;;;;;;3624949;39;20874;-65
2021/06/05 09:27:12;;;;;;;10.90;10.20;;;24.20;80.60;;;;;;3622413;39;20481;-65
2021/06/05 09:29:52;;;;;;;11.10;10.40;;;24.30;80.80;;;;;;3615973;39;20575;-65
2021/06/05 09:32:21;;;;;;;11.20;10.37;;;24.30;80.80;;;;;;3615690;39;20489;-65
2021/06/05 09:34:50;;;;;;;10.60;10.10;;;24.30;80.70;;;;;;3615165;39;20489;-65
2021/06/05 09:37:36;;;;;;;12.03;11.23;;;24.30;80.80;;;;;;3615123;39;20491;-65
2021/06/05 09:40:14;;;;;;;11.03;10.53;;;24.30;80.90;;;;;;3613350;39;20486;-65
2021/06/05 09:42:42;;;;;;;11.60;10.63;;;24.30;80.90;;;;;;3613183;39;20474;-65
2021/06/05 09:45:26;;;;;;;11.50;10.90;;;24.30;80.90;;;;;;3607206;39;20494;-65
2021/06/05 09:48:12;;;;;;;12.13;11.33;;;24.30;80.90;;;;;;3623795;39;20847;-65
2021/06/05 09:50:42;;;;;;;10.80;10.23;;;24.30;80.80;;;;;;3623765;39;20509;-65
2021/06/05 09:53:13;;;;;;;10.33;9.73;;;24.30;80.80;;;;;;3624096;39;20840;-65
2021/06/05 09:55:40;;;;;;;11.67;10.87;;;24.30;80.90;;;;;;3624344;39;20547;-65
2021/06/05 09:58:11;;;;;;;11.37;10.73;;;24.30;80.90;;;;;;3623960;39;20486;-65
2021/06/05 10:00:40;;;;;;;10.57;9.97;;;24.30;80.90;;;;;;3623691;39;20611;-65
2021/06/05 10:03:27;;;;;;;11.20;10.53;;;24.30;80.90;;;;;;3623403;39;20829;-65
2021/06/05 10:05:56;;;;;;;11.67;10.93;;;24.30;81.00;;;;;;3623678;39;20479;-65
2021/06/05 10:08:39;;;;;;;11.27;10.40;;;24.30;81.00;;;;;;3623587;39;20482;-65
2021/06/05 10:11:11;;;;;;;11.57;10.77;;;24.30;81.00;;;;;;3622790;39;20987;-65
2021/06/05 10:13:40;;;;;;;10.93;10.13;;;24.30;80.90;;;;;;3622509;39;20984;-65
2021/06/05 10:16:10;;;;;;;11.60;11.00;;;24.30;81.00;;;;;;3623758;39;20473;-65
2021/06/05 10:18:43;;;;;;;11.70;11.00;;;24.30;81.00;;;;;;3621834;39;20527;-65
2021/06/05 10:21:17;;;;;;;11.60;10.90;;;24.30;81.00;;;;;;3623102;39;20767;-65
2021/06/05 10:23:48;;;;;;;11.50;10.90;;;24.30;81.00;;;;;;3622319;39;20470;-65
2021/06/05 10:26:24;;;;;;;11.90;11.00;;;24.30;81.00;;;;;;3622782;39;20496;-65
2021/06/05 10:28:56;;;;;;;12.17;11.57;;;24.30;80.90;;;;;;3622740;39;20478;-65
2021/06/05 10:31:23;;;;;;;11.37;10.80;;;24.30;80.90;;;;;;3613784;39;20702;-65
2021/06/05 10:33:54;;;;;;;10.87;10.37;;;24.30;80.90;;;;;;3621148;39;20476;-65
2021/06/05 10:36:25;;;;;;;11.80;11.00;;;24.30;81.00;;;;;;3622353;39;20773;-65
2021/06/05 10:38:55;;;;;;;10.93;10.43;;;24.30;81.00;;;;;;3622394;39;20482;-65
2021/06/05 10:41:29;;;;;;;11.50;10.80;;;24.30;80.90;;;;;;3622826;39;20899;-65
2021/06/05 10:43:57;;;;;;;11.23;10.63;;;24.30;81.00;;;;;;3619465;39;20895;-65
2021/06/05 10:46:35;;;;;;;11.40;10.80;;;24.30;80.90;;;;;;3620558;39;20519;-65
2021/06/05 10:49:26;;;;;;;11.40;10.80;;;24.30;80.90;;;;;;3610832;39;20470;-65
2021/06/05 10:52:04;;;;;;;11.33;10.83;;;24.30;80.90;;;;;;3621861;39;20489;-65
2021/06/05 10:54:35;;;;;;;10.97;10.43;;;24.30;80.90;;;;;;3622028;39;20490;-65
2021/06/05 10:57:07;;;;;;;11.97;11.27;;;24.30;80.90;;;;;;3620866;39;20470;-65
2021/06/05 10:59:45;;;;;;;11.13;10.63;;;24.30;80.90;;;;;;3621598;39;20473;-65
2021/06/05 11:02:35;;;;;;;11.07;10.53;;;24.30;81.00;;;;;;3612890;39;20909;-65
2021/06/05 11:05:04;;;;;;;11.00;10.50;;;24.30;81.00;;;;;;3622217;39;20491;-65
2021/06/05 11:07:33;;;;;;;12.10;11.30;;;24.30;80.90;;;;;;3622333;39;20497;-65
2021/06/05 11:10:06;;;;;;;12.50;11.70;;;24.30;81.00;;;;;;3620852;39;20518;-65
2021/06/05 11:12:51;;;;;;;11.40;10.90;;;24.30;80.90;;;;;;3613474;39;20478;-65
2021/06/05 11:16:00;;;;;;;11.10;10.50;;;24.30;80.90;;;;;;3621871;39;20470;-65
2021/06/05 11:18:31;;;;;;;12.17;11.67;;;24.30;80.90;;;;;;3620987;39;20505;-65
2021/06/05 11:20:59;;;;;;;11.40;10.90;;;24.30;80.80;;;;;;3613334;39;20490;-65
2021/06/05 11:23:31;;;;;;;11.50;10.80;;;24.30;80.90;;;;;;3621464;39;20486;-65
2021/06/05 11:26:20;;;;;;;11.90;11.20;;;24.30;80.90;;;;;;3619898;39;20506;-65
2021/06/05 11:28:50;;;;;;;11.17;10.57;;;24.30;80.90;;;;;;3620946;39;20523;-65
2021/06/05 11:31:38;;;;;;;11.97;11.47;;;24.30;80.80;;;;;;3620946;39;20470;-65
2021/06/05 11:34:08;;;;;;;10.83;10.43;;;24.30;80.90;;;;;;3620450;39;20474;-65
2021/06/05 11:36:48;;;;;;;12.33;11.73;;;24.30;80.90;;;;;;3620151;39;20494;-65
2021/06/05 11:39:47;;;;;;;11.97;11.23;;;24.30;80.90;;;;;;3620437;39;20867;-65
2021/06/05 11:42:57;;;;;;;13.33;12.53;;;24.30;80.90;;;;;;3618179;39;20497;-65
2021/06/05 11:45:52;;;;;;;12.63;12.00;;;24.30;80.90;;;;;;3609059;39;20474;-65
2021/06/05 11:48:54;;;;;;;11.73;11.17;;;24.30;80.90;;;;;;3619682;39;20494;-65
2021/06/05 11:51:41;;;;;;;12.10;11.43;;;24.30;81.00;;;;;;3576540;40;20505;-65
2021/06/05 11:54:22;;;;;;;11.60;11.10;;;24.30;80.90;;;;;;3577247;40;20880;-65
2021/06/05 11:56:55;;;;;;;11.63;10.97;;;24.30;81.00;;;;;;3605884;39;20570;-65
2021/06/05 11:59:32;;;;;;;11.60;11.00;;;24.30;81.00;;;;;;3621984;39;20875;-65
2021/06/05 12:02:08;;;;;;;11.00;10.50;;;24.30;81.10;;;;;;3617145;39;20475;-65
2021/06/05 12:04:44;;;;;;;12.00;11.40;;;24.30;81.10;;;;;;3611061;39;20475;-67
2021/06/05 12:07:29;;;;;;;11.27;10.67;;;24.30;81.10;;;;;;3611842;39;20887;-67
2021/06/05 12:09:57;;;;;;;11.20;10.60;;;24.30;81.30;;;;;;3610951;39;21179;-67
2021/06/05 12:12:28;;;;;;;10.77;10.03;;;24.30;81.90;;;;;;3610556;39;20546;-67
2021/06/05 12:15:06;;;;;;;10.00;9.50;;;24.30;83.40;;;;;;3616932;39;20466;-67
2021/06/05 12:17:36;;;;;;;11.50;10.93;;;24.30;83.40;;;;;;3620318;39;20562;-67
2021/06/05 12:20:10;;;;;;;12.10;11.23;;;24.30;83.10;;;;;;3622051;39;20468;-67
2021/06/05 12:22:40;;;;;;;10.43;10.03;;;24.30;82.70;;;;;;3620994;39;20771;-67
2021/06/05 12:25:27;;;;;;;10.77;10.30;;;24.30;83.00;;;;;;3621269;39;20718;-67
2021/06/05 12:28:06;;;;;;;10.83;10.43;;;24.30;82.70;;;;;;3622902;39;20741;-67
2021/06/05 12:30:33;;;;;;;10.23;9.73;;;24.30;83.20;;;;;;3621550;39;21126;-67
2021/06/05 12:33:04;;;;;;;11.30;10.67;;;24.30;84.10;;;;;;3621093;39;20493;-67
2021/06/05 12:35:35;;;;;;;11.37;10.57;;;24.30;84.50;;;;;;3620837;39;20482;-67
2021/06/05 12:38:05;;;;;;;10.77;10.37;;;24.20;84.20;;;;;;3623061;39;21044;-67
2021/06/05 12:40:38;;;;;;;10.90;10.40;;;24.20;84.90;;;;;;3621335;39;20467;-67
2021/06/05 12:43:07;;;;;;;10.73;10.27;;;24.20;85.00;;;;;;3623596;39;20470;-67
2021/06/05 12:45:36;;;;;;;11.17;10.50;;;24.20;84.90;;;;;;3621919;39;20493;-67
2021/06/05 12:48:04;;;;;;;9.53;9.23;;;24.20;84.50;;;;;;3612083;39;20486;-67